Time;durP1;ratioP1;P1;durP2;ratioP2;P2;SDS_P1;SDS_P2;PMS_P1;PMS_P2;Temp;Humidity;BMP_temperature;BMP_pressure;BME280_temperature;BME280_humidity;BME280_pressure;Samples;Min_cycle;Max_cycle;Signal;HPM_P1;HPM_P2
2024/02/22 00:01:18;;;;;;;15.20;8.82;;;;;;;;;;5886047;28;20053;-79
2024/02/22 00:04:09;;;;;;;11.52;7.72;;;;;;;;;;5884110;28;20053;-79
2024/02/22 00:07:00;;;;;;;12.95;7.70;;;;;;;;;;5886168;28;20041;-79
2024/02/22 00:09:53;;;;;;;16.38;9.38;;;;;;;;;;5884103;28;20482;-79
2024/02/22 00:12:44;;;;;;;9.73;7.13;;;;;;;;;;5883810;28;20072;-79
2024/02/22 00:15:34;;;;;;;15.23;6.75;;;;;;;;;;5884082;28;20413;-79
2024/02/22 00:18:25;;;;;;;16.65;7.10;;;;;;;;;;5885116;28;20041;-79
2024/02/22 00:21:18;;;;;;;15.15;8.93;;;;;;;;;;5900664;28;20060;-79
2024/02/22 00:24:08;;;;;;;18.60;6.35;;;;;;;;;;5883982;28;20457;-79
2024/02/22 00:26:59;;;;;;;9.55;7.25;;;;;;;;;;5884422;28;20430;-79
2024/02/22 00:29:50;;;;;;;15.52;6.95;;;;;;;;;;5884054;28;20045;-79
2024/02/22 00:32:43;;;;;;;14.13;6.45;;;;;;;;;;5885163;28;20041;-79
2024/02/22 00:35:34;;;;;;;17.13;8.50;;;;;;;;;;5884000;28;20052;-79
2024/02/22 00:38:26;;;;;;;11.50;7.05;;;;;;;;;;5885211;28;20102;-78
2024/02/22 00:41:17;;;;;;;13.82;6.53;;;;;;;;;;5883975;28;20056;-79
2024/02/22 00:44:13;;;;;;;11.23;5.90;;;;;;;;;;5883951;28;20057;-79
2024/02/22 00:47:04;;;;;;;15.20;8.55;;;;;;;;;;5883807;28;20053;-79
2024/02/22 00:49:55;;;;;;;9.90;6.07;;;;;;;;;;5885426;28;20049;-79
2024/02/22 00:52:47;;;;;;;21.77;8.43;;;;;;;;;;5884972;28;20483;-79
2024/02/22 00:55:39;;;;;;;18.88;7.40;;;;;;;;;;5884000;28;20128;-79
2024/02/22 00:58:30;;;;;;;13.55;7.88;;;;;;;;;;5869971;28;20044;-79
2024/02/22 01:01:21;;;;;;;9.77;4.72;;;;;;;;;;5890623;28;20048;-79
2024/02/22 01:04:15;;;;;;;10.13;6.22;;;;;;;;;;5897806;28;20053;-79
2024/02/22 01:07:06;;;;;;;11.18;5.13;;;;;;;;;;5872154;28;20068;-79
2024/02/22 01:09:58;;;;;;;7.78;5.40;;;;;;;;;;5888498;28;20426;-79
2024/02/22 01:12:51;;;;;;;5.30;3.55;;;;;;;;;;5903895;28;20646;-79
2024/02/22 01:15:42;;;;;;;6.53;3.25;;;;;;;;;;5904264;28;20040;-79
2024/02/22 01:18:34;;;;;;;12.57;4.57;;;;;;;;;;5887799;28;20056;-79
2024/02/22 01:21:25;;;;;;;7.82;4.47;;;;;;;;;;5887539;28;20045;-79
2024/02/22 01:24:16;;;;;;;7.53;4.78;;;;;;;;;;5887423;28;20064;-79
2024/02/22 01:27:07;;;;;;;5.55;3.58;;;;;;;;;;5887374;28;20063;-79
2024/02/22 01:29:58;;;;;;;9.20;4.30;;;;;;;;;;5887690;28;20049;-79
2024/02/22 01:32:49;;;;;;;10.52;6.40;;;;;;;;;;5903666;28;20123;-79
2024/02/22 01:35:40;;;;;;;8.00;4.95;;;;;;;;;;5903923;28;20048;-79
2024/02/22 01:38:30;;;;;;;3.95;3.53;;;;;;;;;;5886690;28;20044;-79
2024/02/22 01:41:21;;;;;;;10.18;4.90;;;;;;;;;;5887105;28;20402;-79
2024/02/22 01:44:15;;;;;;;9.98;3.80;;;;;;;;;;5887021;28;20064;-79
2024/02/22 01:47:06;;;;;;;5.43;3.25;;;;;;;;;;5887110;28;20074;-79
2024/02/22 01:49:58;;;;;;;11.88;2.95;;;;;;;;;;5887443;28;20091;-79
2024/02/22 01:52:49;;;;;;;6.65;3.55;;;;;;;;;;5886886;28;20083;-79
2024/02/22 01:55:41;;;;;;;4.28;2.60;;;;;;;;;;5887089;28;20045;-79
2024/02/22 01:58:35;;;;;;;6.05;2.60;;;;;;;;;;5886704;28;20045;-79
2024/02/22 02:01:26;;;;;;;4.45;3.05;;;;;;;;;;5887924;28;20128;-79
2024/02/22 02:04:17;;;;;;;5.57;2.35;;;;;;;;;;5902951;28;20490;-79
2024/02/22 02:07:08;;;;;;;4.72;2.08;;;;;;;;;;5886828;28;20059;-79
2024/02/22 02:09:59;;;;;;;4.70;2.50;;;;;;;;;;5886176;28;20044;-79
2024/02/22 02:12:49;;;;;;;4.00;2.72;;;;;;;;;;5886653;28;20115;-79
2024/02/22 02:15:41;;;;;;;4.88;3.28;;;;;;;;;;5886536;28;20056;-79
2024/02/22 02:18:32;;;;;;;4.43;3.17;;;;;;;;;;5886230;28;20049;-79
2024/02/22 02:22:27;;;;;;;4.25;2.90;;;;;;;;;;5886240;28;20075;-79
2024/02/22 02:25:18;;;;;;;5.25;2.15;;;;;;;;;;5881433;28;20434;-79
2024/02/22 02:28:09;;;;;;;4.97;3.15;;;;;;;;;;5887471;28;20060;-79
2024/02/22 02:31:00;;;;;;;7.82;3.58;;;;;;;;;;5886413;28;20521;-79
2024/02/22 02:33:51;;;;;;;7.55;4.13;;;;;;;;;;5886133;28;20064;-79
2024/02/22 02:36:41;;;;;;;3.58;2.28;;;;;;;;;;5886340;28;20540;-80
2024/02/22 02:39:32;;;;;;;3.00;2.10;;;;;;;;;;5885883;28;20057;-80
2024/02/22 02:42:25;;;;;;;2.78;2.50;;;;;;;;;;5887198;28;20048;-80
2024/02/22 02:45:16;;;;;;;6.47;2.88;;;;;;;;;;5885639;28;20049;-80
2024/02/22 02:48:07;;;;;;;5.40;4.32;;;;;;;;;;5869481;28;20049;-80
2024/02/22 02:50:59;;;;;;;6.38;2.78;;;;;;;;;;5886295;28;20044;-80
2024/02/22 02:53:49;;;;;;;4.53;2.80;;;;;;;;;;5885896;28;20409;-80
2024/02/22 02:56:40;;;;;;;6.07;2.97;;;;;;;;;;5885506;28;20502;-80
2024/02/22 02:59:32;;;;;;;3.67;2.67;;;;;;;;;;5886875;28;20367;-80
2024/02/22 03:02:22;;;;;;;8.60;2.75;;;;;;;;;;5886689;28;20048;-80
2024/02/22 03:05:13;;;;;;;6.50;1.80;;;;;;;;;;5885177;28;20473;-80
2024/02/22 03:08:05;;;;;;;7.60;3.08;;;;;;;;;;5885274;28;20053;-80
2024/02/22 03:10:56;;;;;;;4.13;2.75;;;;;;;;;;5885681;28;20414;-80
2024/02/22 03:13:48;;;;;;;3.53;2.15;;;;;;;;;;5868402;28;20051;-80
2024/02/22 03:16:39;;;;;;;1.40;1.30;;;;;;;;;;5885035;28;20048;-80
2024/02/22 03:19:31;;;;;;;7.28;1.45;;;;;;;;;;5884835;28;20048;-80
2024/02/22 03:22:23;;;;;;;2.20;2.00;;;;;;;;;;5886325;28;20045;-80
2024/02/22 03:25:13;;;;;;;2.38;1.45;;;;;;;;;;5886365;28;20064;-80
2024/02/22 03:28:06;;;;;;;1.20;1.08;;;;;;;;;;5901359;28;20045;-80
2024/02/22 03:30:59;;;;;;;6.63;1.63;;;;;;;;;;5886268;28;20048;-81
2024/02/22 03:33:50;;;;;;;2.33;1.52;;;;;;;;;;5884583;28;20041;-81
2024/02/22 03:36:41;;;;;;;1.98;1.80;;;;;;;;;;5886163;28;20044;-81
2024/02/22 03:39:32;;;;;;;7.57;2.35;;;;;;;;;;5884539;28;20183;-81
2024/02/22 03:42:23;;;;;;;1.52;1.33;;;;;;;;;;5901538;28;20067;-81
2024/02/22 03:45:14;;;;;;;3.70;2.47;;;;;;;;;;5867779;28;20072;-81
2024/02/22 03:48:06;;;;;;;4.95;2.05;;;;;;;;;;5884944;28;20056;-81
2024/02/22 03:50:57;;;;;;;2.08;1.63;;;;;;;;;;5884856;28;20044;-81
2024/02/22 03:53:49;;;;;;;1.40;1.30;;;;;;;;;;5884276;28;20135;-81
2024/02/22 03:56:40;;;;;;;3.90;1.90;;;;;;;;;;5884185;28;20478;-81
2024/02/22 03:59:31;;;;;;;5.80;2.15;;;;;;;;;;5884409;28;20710;-81
2024/02/22 04:02:22;;;;;;;10.48;1.60;;;;;;;;;;5883834;28;20041;-81
2024/02/22 04:05:14;;;;;;;2.03;1.25;;;;;;;;;;5900401;28;20056;-81
2024/02/22 04:08:05;;;;;;;1.42;1.30;;;;;;;;;;5884133;28;20056;-81
2024/02/22 04:10:56;;;;;;;2.70;1.75;;;;;;;;;;5884556;28;20041;-81
2024/02/22 04:13:47;;;;;;;1.52;1.02;;;;;;;;;;5884087;28;20170;-81
2024/02/22 04:16:38;;;;;;;2.60;1.55;;;;;;;;;;5884322;28;20045;-82
2024/02/22 04:19:29;;;;;;;2.75;2.08;;;;;;;;;;5884139;28;20044;-82
2024/02/22 04:22:20;;;;;;;7.20;1.48;;;;;;;;;;5884218;28;20049;-82
2024/02/22 04:25:11;;;;;;;4.10;1.83;;;;;;;;;;5885312;28;20052;-82
2024/02/22 04:28:03;;;;;;;1.88;1.73;;;;;;;;;;5900397;28;20052;-81
2024/02/22 04:30:54;;;;;;;1.95;1.75;;;;;;;;;;5885618;28;20478;-82
2024/02/22 04:33:45;;;;;;;5.93;2.72;;;;;;;;;;5903816;28;20049;-82
2024/02/22 04:36:42;;;;;;;2.17;1.95;;;;;;;;;;5888557;28;20052;-82
2024/02/22 04:39:33;;;;;;;3.75;3.40;;;;;;;;;;5888148;28;20044;-82
2024/02/22 04:42:24;;;;;;;3.72;2.10;;;;;;;;;;5888572;28;20665;-83
2024/02/22 04:45:15;;;;;;;5.57;4.15;;;;;;;;;;5888323;28;20056;-82
2024/02/22 04:48:06;;;;;;;12.63;6.30;;;;;;;;;;5889947;28;20070;-82
2024/02/22 04:50:57;;;;;;;10.25;5.28;;;;;;;;;;5888332;28;20041;-83
2024/02/22 04:53:48;;;;;;;11.07;5.88;;;;;;;;;;5888257;28;20494;-82
2024/02/22 04:56:39;;;;;;;10.40;7.22;;;;;;;;;;5888170;28;20446;-82
2024/02/22 04:59:30;;;;;;;8.88;6.20;;;;;;;;;;5888120;28;20041;-83
2024/02/22 05:02:22;;;;;;;6.75;4.05;;;;;;;;;;5904575;28;20053;-82
2024/02/22 05:05:13;;;;;;;2.83;2.63;;;;;;;;;;5888039;28;20475;-82
2024/02/22 05:08:05;;;;;;;5.32;3.88;;;;;;;;;;5889196;28;20059;-82
2024/02/22 05:10:55;;;;;;;4.22;3.45;;;;;;;;;;5888070;28;20055;-83
2024/02/22 05:13:47;;;;;;;5.78;3.20;;;;;;;;;;5889120;28;20045;-82
2024/02/22 05:16:37;;;;;;;9.32;4.25;;;;;;;;;;5871205;28;20123;-83
2024/02/22 05:19:28;;;;;;;3.08;1.63;;;;;;;;;;5889008;28;20490;-82
2024/02/22 05:22:19;;;;;;;2.50;2.22;;;;;;;;;;5887590;28;20053;-83
2024/02/22 05:25:10;;;;;;;7.10;3.28;;;;;;;;;;5887878;28;20045;-82
2024/02/22 05:28:02;;;;;;;2.85;1.50;;;;;;;;;;5887535;28;20126;-82
2024/02/22 05:30:53;;;;;;;2.35;1.70;;;;;;;;;;5871737;28;20048;-82
2024/02/22 05:33:44;;;;;;;4.32;0.75;;;;;;;;;;5888496;28;20044;-83
2024/02/22 05:36:35;;;;;;;1.40;1.30;;;;;;;;;;5888887;28;20068;-82
2024/02/22 05:39:26;;;;;;;3.95;1.85;;;;;;;;;;5903873;28;20045;-82
2024/02/22 05:42:17;;;;;;;6.90;3.13;;;;;;;;;;5903727;28;20410;-83
2024/02/22 05:45:08;;;;;;;7.18;2.42;;;;;;;;;;5886314;28;20160;-82
2024/02/22 05:47:59;;;;;;;3.97;2.45;;;;;;;;;;5889212;28;20539;-83
2024/02/22 05:50:50;;;;;;;10.18;3.13;;;;;;;;;;5903760;28;20045;-83
2024/02/22 05:53:42;;;;;;;2.25;2.05;;;;;;;;;;5887017;28;20499;-82
2024/02/22 05:56:33;;;;;;;3.05;2.45;;;;;;;;;;5903134;28;20052;-83
2024/02/22 05:59:24;;;;;;;4.95;2.85;;;;;;;;;;5903452;28;20406;-82
2024/02/22 06:02:15;;;;;;;2.95;1.83;;;;;;;;;;5886729;28;20053;-82
2024/02/22 06:05:07;;;;;;;6.05;2.85;;;;;;;;;;5903132;28;20056;-82
2024/02/22 06:07:58;;;;;;;6.85;3.47;;;;;;;;;;5887166;28;20418;-83
2024/02/22 06:10:50;;;;;;;5.32;2.22;;;;;;;;;;5886534;28;20110;-82
2024/02/22 06:13:41;;;;;;;8.25;3.28;;;;;;;;;;5886598;28;20519;-83
2024/02/22 06:16:32;;;;;;;3.95;1.95;;;;;;;;;;5886453;28;20125;-82
2024/02/22 06:19:23;;;;;;;2.28;1.92;;;;;;;;;;5886375;28;20052;-82
2024/02/22 06:22:14;;;;;;;1.98;1.77;;;;;;;;;;5886411;28;20422;-82
2024/02/22 06:25:06;;;;;;;9.20;4.05;;;;;;;;;;5887199;28;20135;-82
2024/02/22 06:27:57;;;;;;;7.88;4.25;;;;;;;;;;5886577;28;20045;-83
2024/02/22 06:30:48;;;;;;;3.40;3.10;;;;;;;;;;5887443;28;20045;-83
2024/02/22 06:33:39;;;;;;;5.18;2.85;;;;;;;;;;5887291;28;20623;-83
2024/02/22 06:36:30;;;;;;;4.50;3.78;;;;;;;;;;5885552;28;20059;-83
2024/02/22 06:39:21;;;;;;;5.18;3.53;;;;;;;;;;5886302;28;20513;-83
2024/02/22 06:42:13;;;;;;;8.95;7.38;;;;;;;;;;5885991;28;20076;-83
2024/02/22 06:45:05;;;;;;;6.45;4.65;;;;;;;;;;5885814;28;20127;-82
2024/02/22 06:47:56;;;;;;;6.10;5.18;;;;;;;;;;5885761;28;20045;-83
2024/02/22 06:50:47;;;;;;;4.18;2.80;;;;;;;;;;5885863;28;20044;-83
2024/02/22 06:53:38;;;;;;;8.45;4.82;;;;;;;;;;5885692;28;20059;-83
2024/02/22 06:56:28;;;;;;;5.57;3.25;;;;;;;;;;5885272;28;20041;-83
2024/02/22 06:59:20;;;;;;;9.95;2.85;;;;;;;;;;5902024;28;20055;-83
2024/02/22 07:02:15;;;;;;;3.92;3.10;;;;;;;;;;5886650;28;20422;-83
2024/02/22 07:05:07;;;;;;;6.78;3.53;;;;;;;;;;5885427;28;20053;-82
2024/02/22 07:07:58;;;;;;;12.68;4.53;;;;;;;;;;5885710;28;20051;-84
2024/02/22 07:10:49;;;;;;;3.92;3.28;;;;;;;;;;5901441;28;20047;-84
2024/02/22 07:13:40;;;;;;;6.78;4.20;;;;;;;;;;5901656;28;20041;-83
2024/02/22 07:16:32;;;;;;;7.15;4.55;;;;;;;;;;5884968;28;20140;-84
2024/02/22 07:19:24;;;;;;;6.82;4.75;;;;;;;;;;5901613;28;20387;-84
2024/02/22 07:22:15;;;;;;;4.18;3.72;;;;;;;;;;5901483;28;20051;-83
2024/02/22 07:25:06;;;;;;;9.73;4.55;;;;;;;;;;5901397;28;20056;-83
2024/02/22 07:27:58;;;;;;;13.23;6.57;;;;;;;;;;5885528;28;20410;-84
2024/02/22 07:30:52;;;;;;;12.18;6.72;;;;;;;;;;5901252;28;20670;-83
2024/02/22 07:33:43;;;;;;;8.60;6.20;;;;;;;;;;5885459;28;20053;-84
2024/02/22 07:36:34;;;;;;;8.70;6.20;;;;;;;;;;5868174;28;20041;-83
2024/02/22 07:39:24;;;;;;;10.68;6.03;;;;;;;;;;5886134;28;20395;-83
2024/02/22 07:42:15;;;;;;;9.20;7.13;;;;;;;;;;5885738;28;20064;-83
2024/02/22 07:45:06;;;;;;;10.75;7.15;;;;;;;;;;5884776;28;20607;-83
2024/02/22 07:47:58;;;;;;;8.43;5.18;;;;;;;;;;5901441;28;20049;-83
2024/02/22 07:50:49;;;;;;;6.40;5.20;;;;;;;;;;5868251;28;20041;-83
2024/02/22 07:53:42;;;;;;;9.23;5.30;;;;;;;;;;5885862;28;20041;-84
2024/02/22 07:56:39;;;;;;;7.25;4.60;;;;;;;;;;5884689;28;20430;-83
2024/02/22 07:59:30;;;;;;;7.97;4.70;;;;;;;;;;5901143;28;20494;-83
2024/02/22 08:02:20;;;;;;;4.72;3.03;;;;;;;;;;5884276;28;20048;-83
2024/02/22 08:05:12;;;;;;;8.32;4.47;;;;;;;;;;5900851;28;20477;-83
2024/02/22 08:08:04;;;;;;;3.90;3.45;;;;;;;;;;5884434;28;20056;-83
2024/02/22 08:10:55;;;;;;;3.55;2.45;;;;;;;;;;5868228;28;20049;-83
2024/02/22 08:13:46;;;;;;;3.83;2.13;;;;;;;;;;5884556;28;20041;-83
2024/02/22 08:16:37;;;;;;;1.83;1.10;;;;;;;;;;5884126;28;20456;-83
2024/02/22 08:19:29;;;;;;;2.40;1.75;;;;;;;;;;5884144;28;20441;-83
2024/02/22 08:22:20;;;;;;;0.90;0.90;;;;;;;;;;5884339;28;20159;-83
2024/02/22 08:25:13;;;;;;;1.25;0.90;;;;;;;;;;5885136;28;20053;-83
2024/02/22 08:28:04;;;;;;;6.13;1.35;;;;;;;;;;5900720;28;20517;-83
2024/02/22 08:30:57;;;;;;;0.73;0.73;;;;;;;;;;5900968;28;20064;-83
2024/02/22 08:33:49;;;;;;;1.23;1.13;;;;;;;;;;5883962;28;20045;-83
2024/02/22 08:36:40;;;;;;;1.27;1.10;;;;;;;;;;5884115;28;20479;-83
2024/02/22 08:39:31;;;;;;;1.20;1.10;;;;;;;;;;5884010;28;20041;-83
2024/02/22 08:42:21;;;;;;;6.50;1.50;;;;;;;;;;5883924;28;20056;-83
2024/02/22 08:45:14;;;;;;;8.02;1.52;;;;;;;;;;5885107;28;20049;-82
2024/02/22 08:48:06;;;;;;;1.13;1.02;;;;;;;;;;5884391;28;20049;-82
2024/02/22 08:50:57;;;;;;;1.17;1.08;;;;;;;;;;5883963;28;20041;-82
2024/02/22 08:53:49;;;;;;;3.10;1.40;;;;;;;;;;5867212;28;20413;-83
2024/02/22 08:56:40;;;;;;;2.60;1.98;;;;;;;;;;5885109;28;20424;-83
2024/02/22 08:59:31;;;;;;;3.70;1.83;;;;;;;;;;5885100;28;20044;-82
2024/02/22 09:02:23;;;;;;;1.73;1.52;;;;;;;;;;5883632;28;20055;-83
2024/02/22 09:05:14;;;;;;;2.08;1.60;;;;;;;;;;5883779;28;20136;-83
2024/02/22 09:08:06;;;;;;;2.53;1.70;;;;;;;;;;5883932;28;20068;-82
2024/02/22 09:10:58;;;;;;;2.00;1.10;;;;;;;;;;5884018;28;20055;-83
2024/02/22 09:13:49;;;;;;;3.08;1.90;;;;;;;;;;5883643;28;20045;-83
2024/02/22 09:16:40;;;;;;;4.55;3.15;;;;;;;;;;5883576;28;20053;-83
2024/02/22 09:19:31;;;;;;;2.30;1.35;;;;;;;;;;5887671;28;20099;-83
2024/02/22 09:22:22;;;;;;;1.50;1.05;;;;;;;;;;5888759;28;20084;-83
2024/02/22 09:25:16;;;;;;;4.53;2.13;;;;;;;;;;5871010;28;20053;-82
2024/02/22 09:28:07;;;;;;;1.60;1.45;;;;;;;;;;5887652;28;20119;-82
2024/02/22 09:30:58;;;;;;;6.25;2.50;;;;;;;;;;5887665;28;20044;-82
2024/02/22 09:33:49;;;;;;;3.78;2.55;;;;;;;;;;5888729;28;20059;-82
2024/02/22 09:36:43;;;;;;;4.10;2.53;;;;;;;;;;5887302;28;20047;-82
2024/02/22 09:39:35;;;;;;;4.50;1.92;;;;;;;;;;5887901;28;20044;-82
2024/02/22 09:42:28;;;;;;;3.28;2.10;;;;;;;;;;5886878;28;20087;-83
2024/02/22 09:45:19;;;;;;;2.08;1.75;;;;;;;;;;5888225;28;20053;-83
2024/02/22 09:48:11;;;;;;;7.75;2.58;;;;;;;;;;5889107;28;20132;-82
2024/02/22 09:51:05;;;;;;;2.55;1.95;;;;;;;;;;5886982;28;20183;-82
2024/02/22 09:53:56;;;;;;;3.03;1.88;;;;;;;;;;5887667;28;20040;-83
2024/02/22 09:56:49;;;;;;;9.13;2.88;;;;;;;;;;5887138;28;20060;-83
2024/02/22 09:59:51;;;;;;;4.47;3.00;;;;;;;;;;5887072;28;20044;-83
2024/02/22 10:02:46;;;;;;;5.07;2.15;;;;;;;;;;5903002;28;20414;-82
2024/02/22 10:05:38;;;;;;;1.95;1.27;;;;;;;;;;5886417;28;20114;-82
2024/02/22 10:08:29;;;;;;;3.50;2.00;;;;;;;;;;5886708;28;20041;-83
2024/02/22 10:11:20;;;;;;;1.08;0.88;;;;;;;;;;5886550;28;20056;-82
2024/02/22 10:14:16;;;;;;;1.50;1.40;;;;;;;;;;5886948;28;20131;-82
2024/02/22 10:17:06;;;;;;;7.70;1.95;;;;;;;;;;5887089;28;20052;-82
2024/02/22 10:20:00;;;;;;;1.70;1.40;;;;;;;;;;5888359;28;20048;-83
2024/02/22 10:22:51;;;;;;;1.48;1.00;;;;;;;;;;5886728;28;20052;-82
2024/02/22 10:25:42;;;;;;;2.03;1.27;;;;;;;;;;5886170;28;20111;-83
2024/02/22 10:28:33;;;;;;;3.28;0.88;;;;;;;;;;5902421;28;20048;-82
2024/02/22 10:31:24;;;;;;;2.55;1.30;;;;;;;;;;5885193;28;20048;-83
2024/02/22 10:34:15;;;;;;;3.25;1.75;;;;;;;;;;5869826;28;20044;-82
2024/02/22 10:37:07;;;;;;;2.17;1.13;;;;;;;;;;5886103;28;20072;-82
2024/02/22 10:40:00;;;;;;;2.13;1.60;;;;;;;;;;5887705;28;20049;-82
2024/02/22 10:42:55;;;;;;;5.22;2.03;;;;;;;;;;5885758;28;20135;-82
2024/02/22 10:45:47;;;;;;;2.42;1.33;;;;;;;;;;5885572;28;20502;-83
2024/02/22 10:48:47;;;;;;;1.63;1.23;;;;;;;;;;5886923;28;20045;-83
2024/02/22 10:51:40;;;;;;;1.95;1.40;;;;;;;;;;5885406;28;20124;-83
2024/02/22 10:54:34;;;;;;;2.25;1.23;;;;;;;;;;5885818;28;20059;-82
2024/02/22 10:57:28;;;;;;;1.20;1.02;;;;;;;;;;5886624;28;20041;-83
2024/02/22 11:00:20;;;;;;;1.00;0.90;;;;;;;;;;5885665;28;20375;-83
2024/02/22 11:03:13;;;;;;;0.82;0.80;;;;;;;;;;5868939;28;20052;-82
2024/02/22 11:06:04;;;;;;;3.25;1.45;;;;;;;;;;5885368;28;20413;-83
2024/02/22 11:09:01;;;;;;;2.03;1.10;;;;;;;;;;5887147;28;20175;-82
2024/02/22 11:11:52;;;;;;;2.55;1.30;;;;;;;;;;5885820;28;20043;-83
2024/02/22 11:14:44;;;;;;;5.97;1.50;;;;;;;;;;5885060;28;20047;-82
2024/02/22 11:17:34;;;;;;;2.03;0.85;;;;;;;;;;5886436;28;20044;-83
2024/02/22 11:20:43;;;;;;;1.95;1.27;;;;;;;;;;5884845;28;20065;-83
2024/02/22 11:23:34;;;;;;;1.38;1.17;;;;;;;;;;5886497;28;20056;-83
2024/02/22 11:26:25;;;;;;;5.68;1.13;;;;;;;;;;5868266;28;20056;-82
2024/02/22 11:29:32;;;;;;;1.48;1.10;;;;;;;;;;5884801;28;20049;-83
2024/02/22 11:32:23;;;;;;;1.42;1.10;;;;;;;;;;5885034;28;20136;-82
2024/02/22 11:35:14;;;;;;;1.85;1.15;;;;;;;;;;5901304;28;20053;-82
2024/02/22 11:38:06;;;;;;;1.83;1.05;;;;;;;;;;5885967;28;20063;-83
2024/02/22 11:41:04;;;;;;;2.20;1.73;;;;;;;;;;5884774;28;20041;-83
2024/02/22 11:44:03;;;;;;;6.35;1.88;;;;;;;;;;5884445;28;20359;-82
2024/02/22 11:46:54;;;;;;;1.33;0.95;;;;;;;;;;5884566;28;20558;-82
2024/02/22 11:49:45;;;;;;;1.85;1.05;;;;;;;;;;5901155;28;20041;-82
2024/02/22 11:52:36;;;;;;;4.20;1.13;;;;;;;;;;5901101;28;20064;-83
2024/02/22 11:55:27;;;;;;;7.78;0.93;;;;;;;;;;5884142;28;20140;-82
2024/02/22 11:58:20;;;;;;;0.75;0.75;;;;;;;;;;5885795;28;20048;-82
2024/02/22 12:01:11;;;;;;;1.50;1.05;;;;;;;;;;5886039;28;20534;-82
2024/02/22 12:04:02;;;;;;;1.67;1.20;;;;;;;;;;5901134;28;20060;-82
2024/02/22 12:06:54;;;;;;;2.47;0.63;;;;;;;;;;5884549;28;20095;-83
2024/02/22 12:09:45;;;;;;;2.10;1.23;;;;;;;;;;5884486;28;20413;-82
2024/02/22 12:12:39;;;;;;;3.22;1.77;;;;;;;;;;5868159;28;20041;-83
2024/02/22 12:15:30;;;;;;;1.70;0.98;;;;;;;;;;5884254;28;20044;-82
2024/02/22 12:18:21;;;;;;;5.43;0.75;;;;;;;;;;5885481;28;20053;-82
2024/02/22 12:21:12;;;;;;;1.38;1.13;;;;;;;;;;5885770;28;20466;-82
2024/02/22 12:24:04;;;;;;;0.57;0.57;;;;;;;;;;5884386;28;20049;-82
2024/02/22 12:26:57;;;;;;;1.27;0.98;;;;;;;;;;5884525;28;20049;-82
2024/02/22 12:29:50;;;;;;;0.85;0.50;;;;;;;;;;5884116;28;20041;-82
2024/02/22 12:32:50;;;;;;;1.23;1.13;;;;;;;;;;5885437;28;20116;-82
2024/02/22 12:35:41;;;;;;;1.20;1.08;;;;;;;;;;5883863;28;20037;-82
2024/02/22 12:38:32;;;;;;;1.13;0.88;;;;;;;;;;5884243;28;20826;-82
2024/02/22 12:41:23;;;;;;;2.50;1.45;;;;;;;;;;5883862;28;20076;-82
2024/02/22 12:44:14;;;;;;;1.58;1.33;;;;;;;;;;5867517;28;20103;-82
2024/02/22 12:47:11;;;;;;;1.55;0.98;;;;;;;;;;5885233;28;20059;-81
2024/02/22 12:50:01;;;;;;;0.80;0.80;;;;;;;;;;5885180;28;20055;-82
2024/02/22 12:52:53;;;;;;;3.13;1.27;;;;;;;;;;5885834;28;20083;-82
2024/02/22 12:55:43;;;;;;;9.73;1.48;;;;;;;;;;5888389;28;20047;-82
2024/02/22 12:58:35;;;;;;;5.40;1.20;;;;;;;;;;5888293;28;20159;-82
2024/02/22 13:01:26;;;;;;;2.22;1.33;;;;;;;;;;5887997;28;20613;-82
2024/02/22 13:04:16;;;;;;;1.27;1.15;;;;;;;;;;5871649;28;20048;-82
2024/02/22 13:07:12;;;;;;;2.28;1.38;;;;;;;;;;5887972;28;20514;-81
2024/02/22 13:10:05;;;;;;;4.25;1.63;;;;;;;;;;5888590;28;20366;-82
2024/02/22 13:12:56;;;;;;;1.10;1.00;;;;;;;;;;5888588;28;20409;-82
2024/02/22 13:15:48;;;;;;;4.95;2.47;;;;;;;;;;5904428;28;20041;-82
2024/02/22 13:18:39;;;;;;;8.25;3.75;;;;;;;;;;5887604;28;20056;-82
2024/02/22 13:21:30;;;;;;;3.35;2.38;;;;;;;;;;5887805;28;20492;-82
2024/02/22 13:24:21;;;;;;;3.85;2.45;;;;;;;;;;5887826;28;20175;-81
2024/02/22 13:27:15;;;;;;;1.52;1.35;;;;;;;;;;5906482;28;20056;-82
2024/02/22 13:30:09;;;;;;;2.35;1.50;;;;;;;;;;5902002;28;20048;-81
2024/02/22 13:33:00;;;;;;;2.80;1.50;;;;;;;;;;5908448;28;20414;-82
2024/02/22 13:35:51;;;;;;;13.75;7.32;;;;;;;;;;5909550;28;20454;-82
2024/02/22 13:38:43;;;;;;;6.90;3.78;;;;;;;;;;5910783;28;20047;-82
2024/02/22 13:41:34;;;;;;;4.85;3.00;;;;;;;;;;5907371;28;20044;-82
2024/02/22 13:44:25;;;;;;;3.63;1.73;;;;;;;;;;5909437;28;20040;-82
2024/02/22 13:47:21;;;;;;;4.32;3.05;;;;;;;;;;5909606;28;20098;-82
2024/02/22 13:50:12;;;;;;;6.18;1.98;;;;;;;;;;5909973;28;20056;-81
2024/02/22 13:53:03;;;;;;;4.85;2.42;;;;;;;;;;5906795;28;20066;-81
2024/02/22 13:55:54;;;;;;;4.28;2.63;;;;;;;;;;5908430;28;20090;-81
2024/02/22 13:58:44;;;;;;;3.50;1.98;;;;;;;;;;5909769;28;20044;-81
2024/02/22 14:01:36;;;;;;;3.95;2.20;;;;;;;;;;5911276;28;20485;-82
2024/02/22 14:04:27;;;;;;;3.45;2.03;;;;;;;;;;5908450;28;20048;-82
2024/02/22 14:07:19;;;;;;;5.43;2.28;;;;;;;;;;5910592;28;20052;-82
2024/02/22 14:10:11;;;;;;;4.78;1.95;;;;;;;;;;5909527;28;20045;-81
2024/02/22 14:13:02;;;;;;;6.75;3.30;;;;;;;;;;5910875;28;20136;-81
2024/02/22 14:15:53;;;;;;;4.45;2.53;;;;;;;;;;5909861;28;20040;-81
2024/02/22 14:18:45;;;;;;;3.45;2.17;;;;;;;;;;5909763;28;20040;-81
2024/02/22 14:21:36;;;;;;;5.35;2.67;;;;;;;;;;5910693;28;20059;-82
2024/02/22 14:24:27;;;;;;;3.05;2.13;;;;;;;;;;5910960;28;20565;-81
2024/02/22 14:27:17;;;;;;;2.85;2.45;;;;;;;;;;5910511;28;20439;-81
2024/02/22 14:30:09;;;;;;;16.13;2.72;;;;;;;;;;5909706;28;20052;-80
2024/02/22 14:32:59;;;;;;;3.55;2.78;;;;;;;;;;5909796;28;20044;-81
2024/02/22 14:35:51;;;;;;;8.35;3.53;;;;;;;;;;5910910;28;20406;-82
2024/02/22 14:38:42;;;;;;;2.03;1.42;;;;;;;;;;5909471;28;20521;-81
2024/02/22 14:41:34;;;;;;;3.65;1.85;;;;;;;;;;5909263;28;20063;-82
2024/02/22 14:44:25;;;;;;;2.28;1.45;;;;;;;;;;5910898;28;20044;-81
2024/02/22 14:47:16;;;;;;;6.68;2.95;;;;;;;;;;5908434;28;20052;-81
2024/02/22 14:50:09;;;;;;;1.70;1.60;;;;;;;;;;5909169;28;20052;-81
2024/02/22 14:53:01;;;;;;;1.63;1.52;;;;;;;;;;5910784;28;20045;-82
2024/02/22 14:55:52;;;;;;;7.93;3.08;;;;;;;;;;5909086;28;20043;-81
2024/02/22 14:58:44;;;;;;;2.95;2.33;;;;;;;;;;5925837;28;20517;-81
2024/02/22 15:01:35;;;;;;;5.75;3.00;;;;;;;;;;5908748;28;20044;-81
2024/02/22 15:04:29;;;;;;;2.75;1.67;;;;;;;;;;5908511;28;20056;-81
2024/02/22 15:07:21;;;;;;;2.85;2.50;;;;;;;;;;5908466;28;20249;-81
2024/02/22 15:10:15;;;;;;;10.30;2.13;;;;;;;;;;5908613;28;20051;-81
2024/02/22 15:13:07;;;;;;;3.00;2.45;;;;;;;;;;5908643;28;20044;-80
2024/02/22 15:16:00;;;;;;;5.47;2.63;;;;;;;;;;5908539;28;20055;-81
2024/02/22 15:18:51;;;;;;;2.67;1.90;;;;;;;;;;5908641;28;20045;-81
2024/02/22 15:21:44;;;;;;;6.13;2.95;;;;;;;;;;5908115;28;20044;-81
2024/02/22 15:24:36;;;;;;;3.05;2.22;;;;;;;;;;5908655;28;20668;-81
2024/02/22 15:27:26;;;;;;;6.03;3.15;;;;;;;;;;5907916;28;20036;-81
2024/02/22 15:30:17;;;;;;;2.70;2.50;;;;;;;;;;5908008;28;20075;-81
2024/02/22 15:33:08;;;;;;;4.68;2.95;;;;;;;;;;5909109;28;20055;-81
2024/02/22 15:35:59;;;;;;;1.65;1.55;;;;;;;;;;5909743;28;20052;-81
2024/02/22 15:38:51;;;;;;;5.43;3.53;;;;;;;;;;5908129;28;20043;-80
2024/02/22 15:41:45;;;;;;;6.82;2.55;;;;;;;;;;5908027;28;20047;-80
2024/02/22 15:44:36;;;;;;;7.18;4.30;;;;;;;;;;5907977;28;20044;-81
2024/02/22 15:47:27;;;;;;;10.68;3.83;;;;;;;;;;5907734;28;20491;-80
2024/02/22 15:50:18;;;;;;;3.40;2.22;;;;;;;;;;5907724;28;20040;-80
2024/02/22 15:53:09;;;;;;;3.90;2.67;;;;;;;;;;5907735;28;20044;-81
2024/02/22 15:56:01;;;;;;;7.53;3.72;;;;;;;;;;5908003;28;20605;-80
2024/02/22 15:58:52;;;;;;;7.78;2.92;;;;;;;;;;5909216;28;20046;-80
2024/02/22 16:01:43;;;;;;;9.43;3.53;;;;;;;;;;5907466;28;20498;-80
2024/02/22 16:04:35;;;;;;;5.63;2.50;;;;;;;;;;5907538;28;20103;-81
2024/02/22 16:07:26;;;;;;;2.22;2.03;;;;;;;;;;5907207;28;20123;-80
2024/02/22 16:10:17;;;;;;;10.15;4.53;;;;;;;;;;5924594;28;20051;-80
2024/02/22 16:13:09;;;;;;;4.25;2.95;;;;;;;;;;5907923;28;20048;-80
2024/02/22 16:16:05;;;;;;;11.10;6.40;;;;;;;;;;5891895;28;20060;-80
2024/02/22 16:18:58;;;;;;;10.13;6.03;;;;;;;;;;5925608;28;20048;-80
2024/02/22 16:21:49;;;;;;;4.63;4.00;;;;;;;;;;5924371;28;20048;-80
2024/02/22 16:24:40;;;;;;;5.13;3.22;;;;;;;;;;5909071;28;20045;-80
2024/02/22 16:27:32;;;;;;;6.00;3.25;;;;;;;;;;5907190;28;20040;-80
2024/02/22 16:30:23;;;;;;;9.43;4.60;;;;;;;;;;5911515;28;20214;-80
2024/02/22 16:33:14;;;;;;;5.65;2.70;;;;;;;;;;5912109;28;20052;-80
2024/02/22 16:36:05;;;;;;;4.63;3.72;;;;;;;;;;5911813;28;20181;-80
2024/02/22 16:38:56;;;;;;;6.45;3.40;;;;;;;;;;5912263;28;20051;-80
2024/02/22 16:41:57;;;;;;;1.77;1.63;;;;;;;;;;5913423;28;20037;-80
2024/02/22 16:44:47;;;;;;;6.82;2.95;;;;;;;;;;5911884;28;20064;-80
2024/02/22 16:47:38;;;;;;;5.82;3.83;;;;;;;;;;5911751;28;20053;-80
2024/02/22 16:50:29;;;;;;;4.03;2.58;;;;;;;;;;5895198;28;20040;-80
2024/02/22 16:53:20;;;;;;;8.35;3.78;;;;;;;;;;5911753;28;20178;-80
2024/02/22 16:56:11;;;;;;;3.58;2.90;;;;;;;;;;5912850;28;20052;-79
2024/02/22 16:59:03;;;;;;;4.68;3.55;;;;;;;;;;5911350;28;20080;-79
2024/02/22 17:01:54;;;;;;;3.45;2.85;;;;;;;;;;5928660;28;20155;-80
2024/02/22 17:04:46;;;;;;;6.60;2.45;;;;;;;;;;5911195;28;20477;-80
2024/02/22 17:07:38;;;;;;;3.65;2.22;;;;;;;;;;5911358;28;20044;-80